createdAt,value
2018-06-22T00:00:47.991Z,99.30
2018-06-22T00:03:15.742Z,99.30
2018-06-22T00:05:43.792Z,99.40
2018-06-22T00:08:11.514Z,99.60
2018-06-22T00:10:39.258Z,99.60
2018-06-22T00:13:06.983Z,99.80
2018-06-22T00:15:34.755Z,99.80
2018-06-22T00:18:02.425Z,99.90
2018-06-22T00:20:30.189Z,99.90
2018-06-22T00:22:57.913Z,99.90
2018-06-22T00:25:25.677Z,99.90
2018-06-22T00:27:53.480Z,99.90
2018-06-22T00:30:21.208Z,99.90
2018-06-22T00:32:48.985Z,99.90
2018-06-22T00:35:16.681Z,99.90
2018-06-22T00:37:44.486Z,99.90
2018-06-22T00:40:12.221Z,99.90
2018-06-22T00:42:40.038Z,99.90
2018-06-22T00:45:07.836Z,99.90
2018-06-22T00:47:35.667Z,99.90
2018-06-22T00:50:03.431Z,99.90
2018-06-22T00:52:31.444Z,99.90
2018-06-22T00:54:59.173Z,99.90
2018-06-22T00:57:26.875Z,99.90
2018-06-22T00:59:54.590Z,99.90
2018-06-22T01:02:22.357Z,99.90
2018-06-22T01:04:50.081Z,99.90
2018-06-22T01:07:17.803Z,99.90
2018-06-22T01:09:45.607Z,99.90
2018-06-22T01:12:13.262Z,99.90
2018-06-22T01:14:41.153Z,99.90
2018-06-22T01:17:08.826Z,99.90
2018-06-22T01:19:36.546Z,99.90
2018-06-22T01:22:04.330Z,99.90
2018-06-22T01:24:32.021Z,99.90
2018-06-22T01:26:59.893Z,99.90
2018-06-22T01:29:30.008Z,99.90
2018-06-22T01:31:58.321Z,99.90
2018-06-22T01:34:26.316Z,99.90
2018-06-22T01:36:54.222Z,99.90
2018-06-22T01:39:21.894Z,99.90
2018-06-22T01:41:49.726Z,99.90
2018-06-22T01:44:17.479Z,99.90
2018-06-22T01:46:45.296Z,99.90
2018-06-22T01:49:12.967Z,99.90
2018-06-22T01:51:40.805Z,99.90
2018-06-22T01:54:08.496Z,99.90
2018-06-22T01:56:36.221Z,99.90
2018-06-22T01:59:04.027Z,99.90
2018-06-22T02:01:32.010Z,99.90
2018-06-22T02:03:59.865Z,99.90
2018-06-22T02:06:27.595Z,99.90
2018-06-22T02:08:55.402Z,99.90
2018-06-22T02:11:23.108Z,99.90
2018-06-22T02:13:50.978Z,99.90
2018-06-22T02:16:18.682Z,99.90
2018-06-22T02:18:46.450Z,99.90
2018-06-22T02:21:14.192Z,99.90
2018-06-22T02:23:41.938Z,99.90
2018-06-22T02:26:09.749Z,99.90
2018-06-22T02:28:37.454Z,99.90
2018-06-22T02:31:05.253Z,99.90
2018-06-22T02:33:32.990Z,99.90
2018-06-22T02:36:00.816Z,99.90
2018-06-22T02:38:28.617Z,99.90
2018-06-22T02:41:01.745Z,99.90
2018-06-22T02:43:29.524Z,99.90
2018-06-22T02:45:57.284Z,99.90
2018-06-22T02:48:25.079Z,99.90
2018-06-22T02:50:52.890Z,99.90
2018-06-22T02:53:20.637Z,99.90
2018-06-22T02:55:48.671Z,99.90
2018-06-22T02:58:16.405Z,99.90
2018-06-22T03:00:44.145Z,99.90
2018-06-22T03:03:11.873Z,99.90
2018-06-22T03:05:39.577Z,99.90
2018-06-22T03:08:07.514Z,99.90
2018-06-22T03:10:35.272Z,99.90
2018-06-22T03:13:03.009Z,99.90
2018-06-22T03:15:30.850Z,99.90
2018-06-22T03:17:58.588Z,99.90
2018-06-22T03:20:26.387Z,99.90
2018-06-22T03:22:54.214Z,99.90
2018-06-22T03:25:22.047Z,99.90
2018-06-22T03:27:49.806Z,99.90
2018-06-22T03:30:17.584Z,99.90
2018-06-22T03:32:45.270Z,99.90
2018-06-22T03:35:13.111Z,99.90
2018-06-22T03:37:40.843Z,99.90
2018-06-22T03:40:08.577Z,99.90
2018-06-22T03:42:36.325Z,99.90
2018-06-22T03:45:04.232Z,99.90
2018-06-22T03:47:32.054Z,99.90
2018-06-22T03:49:59.770Z,99.90
2018-06-22T03:52:27.546Z,99.90
2018-06-22T03:54:55.241Z,99.90
2018-06-22T03:57:23.058Z,99.90
2018-06-22T03:59:50.821Z,99.90
2018-06-22T04:02:18.653Z,99.90
2018-06-22T04:04:46.422Z,99.90
2018-06-22T04:07:14.141Z,99.90
2018-06-22T04:09:41.888Z,99.90
2018-06-22T04:12:09.726Z,99.90
2018-06-22T04:14:37.566Z,99.90
2018-06-22T04:17:05.298Z,99.90
2018-06-22T04:19:33.130Z,99.90
2018-06-22T04:22:00.829Z,99.90
2018-06-22T04:24:28.630Z,99.90
2018-06-22T04:26:56.315Z,99.90
2018-06-22T04:29:24.049Z,99.90
2018-06-22T04:31:51.825Z,99.90
2018-06-22T04:34:19.611Z,99.90
2018-06-22T04:36:47.289Z,99.90
2018-06-22T04:39:15.063Z,99.90
2018-06-22T04:41:42.789Z,99.90
2018-06-22T04:44:10.555Z,99.90
2018-06-22T04:46:38.306Z,99.90
2018-06-22T04:49:06.149Z,99.90
2018-06-22T04:51:33.869Z,99.90
2018-06-22T04:54:01.807Z,99.90
2018-06-22T04:56:30.138Z,99.90
2018-06-22T04:58:58.093Z,99.90
2018-06-22T05:01:25.866Z,99.90
2018-06-22T05:03:53.631Z,99.90
2018-06-22T05:06:21.379Z,99.90
2018-06-22T05:08:49.141Z,99.90
2018-06-22T05:11:16.919Z,99.90
2018-06-22T05:13:44.626Z,99.90
2018-06-22T05:16:12.405Z,99.90
2018-06-22T05:18:40.191Z,99.90
2018-06-22T05:21:12.499Z,99.90
2018-06-22T05:23:40.198Z,99.90
2018-06-22T05:26:07.925Z,99.90
2018-06-22T05:28:35.711Z,99.90
2018-06-22T05:31:03.496Z,99.90
2018-06-22T05:33:31.276Z,99.90
2018-06-22T05:35:59.043Z,99.90
2018-06-22T05:38:26.732Z,99.90
2018-06-22T05:40:54.913Z,99.90
2018-06-22T05:43:22.674Z,99.90
2018-06-22T05:45:50.592Z,99.90
2018-06-22T05:48:18.385Z,99.90
2018-06-22T05:50:46.121Z,99.90
2018-06-22T05:53:13.901Z,99.90
2018-06-22T05:55:41.630Z,99.90
2018-06-22T05:58:09.426Z,99.90
2018-06-22T06:00:37.297Z,99.90
2018-06-22T06:03:05.017Z,99.90
2018-06-22T06:05:33.732Z,99.90
2018-06-22T06:08:01.546Z,99.90
2018-06-22T06:10:29.361Z,99.90
2018-06-22T06:12:57.143Z,99.90
2018-06-22T06:15:25.059Z,99.90
2018-06-22T06:17:52.810Z,99.90
2018-06-22T06:20:20.789Z,99.90
2018-06-22T06:22:52.401Z,99.90
2018-06-22T06:25:20.150Z,99.90
2018-06-22T06:27:47.854Z,99.90
2018-06-22T06:30:16.461Z,99.90
2018-06-22T06:32:44.174Z,99.90
2018-06-22T06:35:11.883Z,99.90
2018-06-22T06:37:39.654Z,99.90
2018-06-22T06:40:07.523Z,99.90
2018-06-22T06:42:35.274Z,99.90
2018-06-22T06:45:03.043Z,99.90
2018-06-22T06:47:30.776Z,99.90
2018-06-22T06:49:58.537Z,99.90
2018-06-22T06:52:26.311Z,99.90
2018-06-22T06:55:02.000Z,99.90
2018-06-22T06:57:29.774Z,99.90
2018-06-22T06:59:57.666Z,99.90
2018-06-22T07:02:25.479Z,99.90
2018-06-22T07:04:53.222Z,99.90
2018-06-22T07:07:20.919Z,99.90
2018-06-22T07:09:48.650Z,99.90
2018-06-22T07:12:16.753Z,99.90
2018-06-22T07:17:12.260Z,99.90
2018-06-22T07:19:40.014Z,99.80
2018-06-22T07:22:07.704Z,98.90
2018-06-22T07:24:35.535Z,99.90
2018-06-22T07:27:03.555Z,99.90
2018-06-22T07:29:31.397Z,99.90
2018-06-22T07:31:59.138Z,98.00
2018-06-22T07:34:26.841Z,99.50
2018-06-22T07:36:54.602Z,98.70
2018-06-22T07:39:22.282Z,99.90
2018-06-22T07:41:50.035Z,99.90
2018-06-22T07:44:17.798Z,99.90
2018-06-22T07:46:45.558Z,99.90
2018-06-22T07:49:13.350Z,98.90
2018-06-22T07:51:41.087Z,99.90
2018-06-22T07:54:08.841Z,97.60
2018-06-22T07:56:36.562Z,96.70
2018-06-22T07:59:04.450Z,97.50
2018-06-22T08:01:32.267Z,98.20
2018-06-22T08:04:00.013Z,99.90
2018-06-22T08:06:27.726Z,99.20
2018-06-22T08:08:55.430Z,98.50
2018-06-22T08:11:23.321Z,97.80
2018-06-22T08:13:51.086Z,97.30
2018-06-22T08:16:18.876Z,96.00
2018-06-22T08:18:46.604Z,95.60
2018-06-22T08:21:14.787Z,93.80
2018-06-22T08:23:42.512Z,93.80
2018-06-22T08:26:10.246Z,94.60
2018-06-22T08:28:38.080Z,96.10
2018-06-22T08:31:05.927Z,97.70
2018-06-22T08:33:33.643Z,98.50
2018-06-22T08:36:01.389Z,98.50
2018-06-22T08:38:29.458Z,99.60
2018-06-22T08:40:57.377Z,99.70
2018-06-22T08:43:25.193Z,98.80
2018-06-22T08:45:53.818Z,97.00
2018-06-22T08:48:21.644Z,93.80
2018-06-22T08:50:49.374Z,95.00
2018-06-22T08:53:17.218Z,96.00
2018-06-22T08:55:45.026Z,97.00
2018-06-22T08:58:12.915Z,98.70
2018-06-22T09:00:40.764Z,99.90
2018-06-22T09:03:08.729Z,99.90
2018-06-22T09:05:36.462Z,99.90
2018-06-22T09:08:04.292Z,99.90
2018-06-22T09:10:32.043Z,99.90
2018-06-22T09:13:00.087Z,99.90
2018-06-22T09:15:27.854Z,99.90
2018-06-22T09:17:55.630Z,99.90
2018-06-22T09:20:23.375Z,99.90
2018-06-22T09:22:51.156Z,99.90
2018-06-22T09:25:18.915Z,99.90
2018-06-22T09:27:46.725Z,99.20
2018-06-22T09:30:14.451Z,98.90
2018-06-22T09:32:42.134Z,97.20
2018-06-22T09:35:10.815Z,97.30
2018-06-22T09:37:38.899Z,96.20
2018-06-22T09:40:06.798Z,97.40
2018-06-22T09:42:34.822Z,97.80
2018-06-22T09:45:02.536Z,98.60
2018-06-22T09:47:30.239Z,97.60
2018-06-22T09:49:57.984Z,98.40
2018-06-22T09:52:25.697Z,98.80
2018-06-22T09:54:53.479Z,98.70
2018-06-22T09:57:21.205Z,99.90
2018-06-22T09:59:48.926Z,99.60
2018-06-22T10:02:16.775Z,98.80
2018-06-22T10:04:44.594Z,98.20
2018-06-22T10:07:12.302Z,97.40
2018-06-22T10:09:40.024Z,97.40
2018-06-22T10:12:07.743Z,98.10
2018-06-22T10:14:35.473Z,98.00
2018-06-22T10:17:03.292Z,98.00
2018-06-22T10:19:31.125Z,97.70
2018-06-22T10:21:58.838Z,98.60
2018-06-22T10:24:26.683Z,97.20
2018-06-22T10:26:54.663Z,98.60
2018-06-22T10:29:22.423Z,96.70
2018-06-22T10:31:50.224Z,95.90
2018-06-22T10:34:17.961Z,95.30
2018-06-22T10:36:45.728Z,96.40
2018-06-22T10:39:13.636Z,96.80
2018-06-22T10:41:41.616Z,96.70
2018-06-22T10:44:10.059Z,97.20
2018-06-22T10:46:38.013Z,98.30
2018-06-22T10:49:05.953Z,99.10
2018-06-22T10:51:33.870Z,98.90
2018-06-22T10:54:01.883Z,98.50
2018-06-22T10:56:29.741Z,99.40
2018-06-22T10:58:57.702Z,99.70
2018-06-22T11:01:25.498Z,99.90
2018-06-22T11:03:53.303Z,99.90
2018-06-22T11:06:21.162Z,99.90
2018-06-22T11:08:48.956Z,98.90
2018-06-22T11:11:16.746Z,99.10
2018-06-22T11:13:44.516Z,98.10
2018-06-22T11:16:12.274Z,99.40
2018-06-22T11:18:40.050Z,99.90
2018-06-22T11:21:07.848Z,99.80
2018-06-22T11:23:35.607Z,99.90
2018-06-22T11:26:05.803Z,99.90
2018-06-22T11:28:33.597Z,98.50
2018-06-22T11:31:01.351Z,98.40
2018-06-22T11:33:29.203Z,99.30
2018-06-22T11:35:57.050Z,99.90
2018-06-22T11:38:24.996Z,99.90
2018-06-22T11:40:53.675Z,99.90
2018-06-22T11:43:29.085Z,99.90
2018-06-22T11:45:56.849Z,99.90
2018-06-22T11:48:24.663Z,99.90
2018-06-22T11:50:54.196Z,99.90
2018-06-22T11:53:22.033Z,99.90
2018-06-22T11:55:49.760Z,99.90
2018-06-22T11:58:17.811Z,99.90
2018-06-22T12:00:45.666Z,99.90
2018-06-22T12:03:13.442Z,99.90
2018-06-22T12:05:41.425Z,99.90
2018-06-22T12:08:09.162Z,99.90
2018-06-22T12:10:36.901Z,99.90
2018-06-22T12:13:04.774Z,99.90
2018-06-22T12:15:32.566Z,99.90
2018-06-22T12:18:00.373Z,99.90
2018-06-22T12:20:28.146Z,99.90
2018-06-22T12:25:23.954Z,99.90
2018-06-22T12:27:51.773Z,99.90
2018-06-22T12:30:19.754Z,99.90
2018-06-22T12:32:47.666Z,99.90
2018-06-22T12:35:15.481Z,99.90
2018-06-22T12:37:43.334Z,99.90
2018-06-22T12:40:11.219Z,99.90
2018-06-22T12:42:39.452Z,99.90
2018-06-22T12:45:07.291Z,99.90
2018-06-22T12:47:35.069Z,99.90
2018-06-22T12:50:02.878Z,99.90
2018-06-22T13:02:15.748Z,99.90
2018-06-22T13:04:43.744Z,99.90
2018-06-22T13:07:11.520Z,99.90
2018-06-22T13:09:39.326Z,99.90
2018-06-22T13:12:07.202Z,99.90
2018-06-22T13:17:02.672Z,99.90
2018-06-22T13:19:30.426Z,99.90
2018-06-22T13:21:58.149Z,99.90
2018-06-22T13:24:26.019Z,99.90
2018-06-22T13:29:46.705Z,99.90
2018-06-22T13:32:14.514Z,99.90
2018-06-22T13:34:42.294Z,99.90
2018-06-22T13:37:10.078Z,99.90
2018-06-22T13:39:37.860Z,99.90
2018-06-22T13:42:05.652Z,99.90
2018-06-22T13:44:33.417Z,99.90
2018-06-22T13:47:01.171Z,99.90
2018-06-22T13:49:28.961Z,99.90
2018-06-22T13:54:24.337Z,99.90
2018-06-22T13:56:57.766Z,99.90
2018-06-22T13:59:25.521Z,99.90
2018-06-22T14:01:53.337Z,99.90
2018-06-22T14:04:26.563Z,99.90
2018-06-22T14:06:55.811Z,99.90
2018-06-22T14:09:23.591Z,99.90
2018-06-22T14:11:51.450Z,99.90
2018-06-22T14:14:19.365Z,99.90
2018-06-22T14:16:47.549Z,99.90
2018-06-22T14:19:15.333Z,99.90
2018-06-22T14:21:43.203Z,99.90
2018-06-22T14:24:10.946Z,99.60
2018-06-22T14:26:38.905Z,99.90
2018-06-22T14:29:06.780Z,99.80
2018-06-22T14:31:34.651Z,99.60
2018-06-22T14:34:02.466Z,99.90
2018-06-22T14:36:30.175Z,99.10
2018-06-22T14:38:57.977Z,99.60
2018-06-22T14:41:25.759Z,99.00
2018-06-22T14:43:54.170Z,98.40
2018-06-22T14:48:55.465Z,99.90
2018-06-22T14:51:23.202Z,99.90
2018-06-22T14:53:56.622Z,99.90
2018-06-22T14:56:30.108Z,99.90
2018-06-22T14:59:03.633Z,99.90
2018-06-22T15:01:37.014Z,99.60
2018-06-22T15:04:10.508Z,99.90
2018-06-22T15:06:43.851Z,99.90
2018-06-22T15:09:11.732Z,98.80
2018-06-22T15:11:39.583Z,96.80
2018-06-22T15:14:07.297Z,97.30
2018-06-22T15:16:35.331Z,96.80
2018-06-22T15:19:03.042Z,96.80
2018-06-22T15:21:30.827Z,97.40
2018-06-22T15:23:59.199Z,98.00
2018-06-22T15:26:27.475Z,98.40
2018-06-22T15:28:55.744Z,98.00
2018-06-22T15:31:23.655Z,98.70
2018-06-22T15:33:57.182Z,98.20
2018-06-22T15:36:30.746Z,98.90
2018-06-22T15:39:04.286Z,99.30
2018-06-22T15:41:37.705Z,99.60
2018-06-22T15:44:11.118Z,99.10
2018-06-22T15:46:44.563Z,98.80
2018-06-22T15:49:17.847Z,99.60
2018-06-22T15:51:51.219Z,98.60
2018-06-22T15:54:24.946Z,97.70
2018-06-22T15:56:52.790Z,97.30
2018-06-22T15:59:20.590Z,97.20
2018-06-22T16:01:48.376Z,97.00
2018-06-22T16:04:16.186Z,97.30
2018-06-22T16:06:43.983Z,97.20
2018-06-22T16:09:13.585Z,97.50
2018-06-22T16:11:41.357Z,96.90
2018-06-22T16:15:17.796Z,96.80
2018-06-22T16:17:52.063Z,95.70
2018-06-22T16:20:25.433Z,95.60
2018-06-22T16:22:58.769Z,95.70
2018-06-22T16:25:32.034Z,95.20
2018-06-22T16:28:01.864Z,95.80
2018-06-22T16:30:30.123Z,96.10
2018-06-22T16:32:57.910Z,96.60
2018-06-22T16:35:26.002Z,97.00
2018-06-22T16:37:53.979Z,97.90
2018-06-22T16:40:21.863Z,98.10
2018-06-22T16:42:50.018Z,98.10
2018-06-22T16:45:17.798Z,96.80
2018-06-22T16:47:45.554Z,97.50
2018-06-22T16:50:13.407Z,97.50
2018-06-22T16:52:41.928Z,97.50
2018-06-22T16:55:10.547Z,99.00
2018-06-22T17:00:07.018Z,99.50
2018-06-22T17:02:34.809Z,99.00
2018-06-22T17:05:02.774Z,99.10
2018-06-22T17:07:36.318Z,98.90
2018-06-22T17:10:09.877Z,99.50
2018-06-22T17:12:43.330Z,98.80
2018-06-22T17:15:16.589Z,99.10
2018-06-22T17:17:50.090Z,99.40
2018-06-22T17:20:18.838Z,99.80
2018-06-22T17:22:46.678Z,99.40
2018-06-22T17:25:14.744Z,99.30
2018-06-22T17:27:43.123Z,99.10
2018-06-22T17:30:10.855Z,99.20
2018-06-22T17:32:38.704Z,98.80
2018-06-22T17:35:06.414Z,99.00
2018-06-22T17:37:34.374Z,97.80
2018-06-22T17:40:02.142Z,97.50
2018-06-22T17:44:57.618Z,98.30
2018-06-22T17:47:25.499Z,97.80
2018-06-22T17:49:53.286Z,98.40
2018-06-22T17:57:16.797Z,98.80
2018-06-22T17:59:50.205Z,99.30
2018-06-22T18:03:23.624Z,99.90
2018-06-22T18:05:57.121Z,99.40
2018-06-22T18:08:30.767Z,99.20
2018-06-22T18:11:04.191Z,98.90
2018-06-22T18:13:31.996Z,99.40
2018-06-22T18:15:59.690Z,99.50
2018-06-22T18:18:27.522Z,99.80
2018-06-22T18:20:55.368Z,99.90
2018-06-22T18:23:23.182Z,99.90
2018-06-22T18:25:50.924Z,99.90
2018-06-22T18:28:18.709Z,99.90
2018-06-22T18:30:46.602Z,99.90
2018-06-22T18:33:14.367Z,99.90
2018-06-22T18:35:42.178Z,99.90
2018-06-22T18:38:09.894Z,99.90
2018-06-22T18:40:37.741Z,99.90
2018-06-22T18:43:05.886Z,99.90
2018-06-22T18:45:33.680Z,99.90
2018-06-22T18:48:01.437Z,99.90
2018-06-22T18:50:29.241Z,99.90
2018-06-22T18:53:02.653Z,99.90
2018-06-22T18:55:35.934Z,99.90
2018-06-22T18:58:09.245Z,99.90
2018-06-22T19:00:42.538Z,99.90
2018-06-22T19:03:15.804Z,99.90
2018-06-22T19:05:43.636Z,99.90
2018-06-22T19:08:11.359Z,99.90
2018-06-22T19:10:39.165Z,99.90
2018-06-22T19:13:06.942Z,99.90
2018-06-22T19:15:34.799Z,99.90
2018-06-22T19:18:02.618Z,99.90
2018-06-22T19:20:30.460Z,99.90
2018-06-22T19:22:58.237Z,99.90
2018-06-22T19:25:26.116Z,99.90
2018-06-22T19:27:53.951Z,99.90
2018-06-22T19:30:21.776Z,99.90
2018-06-22T19:32:49.585Z,99.90
2018-06-22T19:35:17.379Z,99.90
2018-06-22T19:37:45.223Z,99.90
2018-06-22T19:40:13.301Z,99.90
2018-06-22T19:42:41.041Z,99.90
2018-06-22T19:45:14.287Z,99.90
2018-06-22T19:47:47.627Z,99.90
2018-06-22T20:03:14.978Z,99.90
2018-06-22T20:05:42.807Z,99.90
2018-06-22T20:08:10.627Z,99.90
2018-06-22T20:10:38.381Z,99.90
2018-06-22T20:13:06.303Z,99.90
2018-06-22T20:15:34.148Z,99.90
2018-06-22T20:18:01.923Z,99.90
2018-06-22T20:20:29.717Z,99.90
2018-06-22T20:22:57.544Z,99.90
2018-06-22T20:25:31.203Z,99.90
2018-06-22T20:27:59.074Z,99.90
2018-06-22T20:30:26.887Z,99.90
2018-06-22T20:32:54.683Z,99.90
2018-06-22T20:35:27.975Z,99.90
2018-06-22T20:38:01.473Z,99.90
2018-06-22T20:40:35.031Z,99.90
2018-06-22T20:43:08.355Z,99.90
2018-06-22T20:45:56.515Z,99.90
2018-06-22T20:48:29.804Z,99.90
2018-06-22T20:50:57.684Z,99.90
2018-06-22T20:53:25.447Z,99.90
2018-06-22T20:55:53.207Z,99.90
2018-06-22T20:58:21.147Z,99.90
2018-06-22T21:00:49.694Z,99.90
2018-06-22T21:03:17.429Z,99.90
2018-06-22T21:05:45.140Z,99.90
2018-06-22T21:08:12.919Z,99.90
2018-06-22T21:10:40.728Z,99.90
2018-06-22T21:13:09.118Z,99.90
2018-06-22T21:15:36.875Z,99.90
2018-06-22T21:18:04.868Z,99.90
2018-06-22T21:20:32.934Z,99.90
2018-06-22T21:23:01.093Z,99.90
2018-06-22T21:25:29.238Z,99.90
2018-06-22T21:28:03.054Z,99.90
2018-06-22T21:30:36.538Z,99.90
2018-06-22T21:33:09.804Z,99.90
2018-06-22T21:35:43.365Z,99.90
2018-06-22T21:38:17.146Z,99.90
2018-06-22T21:40:45.171Z,99.90
2018-06-22T21:43:13.042Z,99.90
2018-06-22T21:45:40.962Z,99.90
2018-06-22T21:48:08.733Z,99.90
2018-06-22T21:50:36.565Z,99.90
2018-06-22T21:53:04.678Z,99.90
2018-06-22T21:55:32.433Z,99.90
2018-06-22T21:58:00.151Z,99.90
2018-06-22T22:00:30.476Z,99.90
2018-06-22T22:02:59.241Z,99.90
2018-06-22T22:05:27.877Z,99.90
2018-06-22T22:07:55.774Z,99.90
2018-06-22T22:10:29.165Z,99.90
2018-06-22T22:12:57.457Z,99.90
2018-06-22T22:15:25.268Z,99.90
2018-06-22T22:17:53.163Z,99.90
2018-06-22T22:20:21.101Z,99.90
2018-06-22T22:22:49.221Z,99.90
2018-06-22T22:25:16.925Z,99.90
2018-06-22T22:27:44.676Z,99.90
2018-06-22T22:30:12.434Z,99.90
2018-06-22T22:32:40.214Z,99.90
2018-06-22T22:35:08.099Z,99.90
2018-06-22T22:37:36.051Z,99.90
2018-06-22T22:40:04.045Z,99.90
2018-06-22T22:42:31.797Z,99.90
2018-06-22T22:44:59.538Z,99.90
2018-06-22T22:47:27.387Z,99.90
2018-06-22T22:49:55.138Z,99.90
2018-06-22T22:52:22.914Z,99.90
2018-06-22T22:54:50.671Z,99.90
2018-06-22T22:57:18.349Z,99.90
2018-06-22T22:59:46.183Z,99.90
2018-06-22T23:02:13.910Z,99.90
2018-06-22T23:04:41.660Z,99.90
2018-06-22T23:07:09.438Z,99.90
2018-06-22T23:09:37.201Z,99.90
2018-06-22T23:12:04.997Z,99.90
2018-06-22T23:14:32.903Z,99.90
2018-06-22T23:17:00.716Z,99.90
2018-06-22T23:19:28.577Z,99.90
2018-06-22T23:21:56.410Z,99.90
2018-06-22T23:24:24.398Z,99.90
2018-06-22T23:26:52.369Z,99.90
2018-06-22T23:29:20.309Z,99.90
2018-06-22T23:31:48.351Z,99.90
2018-06-22T23:34:16.121Z,99.90
2018-06-22T23:36:43.902Z,99.90
2018-06-22T23:39:11.630Z,99.90
2018-06-22T23:41:39.410Z,99.90
2018-06-22T23:44:07.297Z,99.90
2018-06-22T23:46:35.038Z,99.90
2018-06-22T23:49:02.811Z,99.90
2018-06-22T23:51:30.777Z,99.90
2018-06-22T23:53:58.543Z,99.90
2018-06-22T23:56:26.294Z,99.90
2018-06-22T23:58:54.261Z,99.90
